Time;durP1;ratioP1;P1;durP2;ratioP2;P2;SDS_P1;SDS_P2;PMS_P1;PMS_P2;Temp;Humidity;BMP_temperature;BMP_pressure;BME280_temperature;BME280_humidity;BME280_pressure;Samples;Min_cycle;Max_cycle;Signal;HPM_P1;HPM_P2
2022/08/20 00:00:45;;;;;;;20.23;14.10;;;;;;;17.35;100.00;100671.72;5029480;28;20419;-89
2022/08/20 00:03:21;;;;;;;21.60;13.77;;;;;;;17.31;100.00;100676.25;5028325;28;20453;-92
2022/08/20 00:05:55;;;;;;;20.70;13.13;;;;;;;17.31;100.00;100674.31;5013830;28;20418;-91
2022/08/20 00:08:29;;;;;;;19.75;12.60;;;;;;;17.30;100.00;100678.22;5030955;28;20403;-90
2022/08/20 00:10:58;;;;;;;18.37;12.43;;;;;;;17.27;100.00;100676.09;5013475;28;20415;-91
2022/08/20 00:13:37;;;;;;;18.25;11.45;;;;;;;17.22;100.00;100675.47;5017180;28;20439;-92
2022/08/20 00:16:12;;;;;;;17.20;11.27;;;;;;;17.08;100.00;100667.38;5010710;28;20803;-91
2022/08/20 00:18:46;;;;;;;15.82;10.20;;;;;;;17.19;100.00;100678.88;5013911;28;20419;-92
2022/08/20 00:21:21;;;;;;;14.35;9.30;;;;;;;17.13;100.00;100684.53;5031466;28;20426;-90
2022/08/20 00:23:55;;;;;;;14.70;9.13;;;;;;;17.10;100.00;100681.63;5007259;28;20521;-91
2022/08/20 00:26:29;;;;;;;13.43;9.40;;;;;;;17.06;100.00;100673.22;5011936;28;20423;-90
2022/08/20 00:29:02;;;;;;;14.02;8.88;;;;;;;17.10;100.00;100676.94;5019245;28;20451;-91
2022/08/20 00:31:35;;;;;;;14.07;8.82;;;;;;;17.19;100.00;100678.88;5011798;28;20423;-90
2022/08/20 00:34:08;;;;;;;12.63;8.82;;;;;;;17.09;100.00;100672.56;5023497;28;20431;-91
2022/08/20 00:36:43;;;;;;;12.83;8.67;;;;;;;17.13;100.00;100669.97;5017589;28;20432;-90
2022/08/20 00:39:16;;;;;;;12.40;8.20;;;;;;;17.03;100.00;100678.53;5014714;28;20427;-91
2022/08/20 00:41:50;;;;;;;13.60;8.63;;;;;;;17.00;100.00;100672.56;5025649;28;20499;-88
2022/08/20 00:44:21;;;;;;;12.35;8.45;;;;;;;17.10;100.00;100670.63;5025504;28;20908;-90
2022/08/20 00:46:55;;;;;;;12.45;8.43;;;;;;;17.05;100.00;100673.53;5030201;28;20441;-90
2022/08/20 00:49:26;;;;;;;11.57;8.07;;;;;;;17.15;100.00;100662.19;5028624;28;20516;-90
2022/08/20 00:52:06;;;;;;;12.45;8.15;;;;;;;17.07;100.00;100663.84;5023290;28;20934;-90
2022/08/20 00:54:44;;;;;;;12.40;8.38;;;;;;;17.14;100.00;100675.16;5026469;28;20429;-92
2022/08/20 00:57:22;;;;;;;11.57;7.78;;;;;;;17.04;100.00;100685.66;5021368;28;20899;-90
2022/08/20 00:59:57;;;;;;;12.80;7.93;;;;;;;17.05;100.00;100684.53;5029792;28;20454;-88
2022/08/20 01:02:31;;;;;;;11.48;7.40;;;;;;;16.90;100.00;100681.13;5029159;28;20433;-89
2022/08/20 01:04:59;;;;;;;11.10;7.45;;;;;;;16.94;100.00;100681.28;5029576;28;20411;-92
2022/08/20 01:07:32;;;;;;;10.30;7.22;;;;;;;16.87;100.00;100679.00;5029935;28;20429;-91
2022/08/20 01:10:01;;;;;;;11.43;7.25;;;;;;;16.87;100.00;100683.69;5024795;28;20458;-90
2022/08/20 01:12:34;;;;;;;12.32;7.10;;;;;;;16.86;100.00;100685.63;5030266;28;20437;-91
2022/08/20 01:15:06;;;;;;;9.53;6.70;;;;;;;16.86;100.00;100684.81;5011408;28;20423;-90
2022/08/20 01:17:44;;;;;;;10.38;6.47;;;;;;;16.81;100.00;100692.09;5024582;28;20437;-91
2022/08/20 01:20:21;;;;;;;12.00;6.05;;;;;;;16.76;100.00;100697.72;5031791;28;20502;-90
2022/08/20 01:26:01;;;;;;;8.93;5.65;;;;;;;16.87;100.00;100700.19;5009819;28;20934;-90
2022/08/20 01:28:39;;;;;;;8.82;5.88;;;;;;;16.92;100.00;100709.09;5028819;28;20427;-89
2022/08/20 01:31:10;;;;;;;10.25;5.78;;;;;;;16.86;100.00;100704.06;5011977;28;20419;-91
2022/08/20 01:33:38;;;;;;;7.78;5.25;;;;;;;16.93;100.00;100707.97;5018103;28;20415;-90
2022/08/20 01:36:09;;;;;;;8.38;5.68;;;;;;;16.88;100.00;100707.31;5030910;28;20434;-91
2022/08/20 01:38:43;;;;;;;8.15;5.53;;;;;;;16.95;100.00;100702.97;5014887;28;20427;-91
2022/08/20 01:41:25;;;;;;;9.43;5.90;;;;;;;16.95;100.00;100719.44;5004291;28;20427;-90
2022/08/20 01:43:55;;;;;;;8.75;5.50;;;;;;;16.91;100.00;100707.47;5009686;28;20901;-90
2022/08/20 01:46:32;;;;;;;7.97;5.30;;;;;;;17.03;100.00;100706.03;5032361;28;20430;-91
2022/08/20 01:49:11;;;;;;;8.32;5.43;;;;;;;17.04;100.00;100707.66;5032852;28;20423;-92
2022/08/20 01:51:45;;;;;;;8.82;5.28;;;;;;;16.98;100.00;100715.25;5019113;28;20630;-90
2022/08/20 01:54:14;;;;;;;8.38;5.18;;;;;;;16.94;100.00;100717.81;5030989;28;20907;-89
2022/08/20 01:56:55;;;;;;;8.77;5.72;;;;;;;17.06;100.00;100717.19;5029634;28;20918;-90
2022/08/20 01:59:29;;;;;;;8.85;5.70;;;;;;;17.03;100.00;100715.09;5014167;28;20414;-91
2022/08/20 02:02:04;;;;;;;9.20;5.60;;;;;;;17.09;100.00;100708.28;4964545;28;1751185;-90
2022/08/20 02:04:37;;;;;;;8.55;5.20;;;;;;;17.07;100.00;100701.50;5010724;28;20840;-90
2022/08/20 02:07:14;;;;;;;8.27;5.50;;;;;;;17.01;100.00;100698.09;5029864;28;20425;-90
2022/08/20 02:09:49;;;;;;;8.35;5.18;;;;;;;17.06;100.00;100702.66;5022206;28;20435;-90
2022/08/20 02:12:24;;;;;;;8.05;5.50;;;;;;;17.12;100.00;100707.69;5032552;28;20426;-91
2022/08/20 02:14:57;;;;;;;8.35;5.22;;;;;;;17.11;100.00;100714.31;5033195;28;20415;-91
2022/08/20 02:17:26;;;;;;;11.82;6.22;;;;;;;17.02;100.00;100721.72;5032843;28;20437;-89
2022/08/20 02:20:05;;;;;;;8.98;5.35;;;;;;;17.09;100.00;100716.53;5013845;28;20423;-92
2022/08/20 02:22:43;;;;;;;8.50;5.43;;;;;;;17.11;100.00;100713.47;5004869;28;20427;-91
2022/08/20 02:25:18;;;;;;;7.85;5.43;;;;;;;17.10;100.00;100714.63;5030159;28;20427;-91
2022/08/20 02:27:55;;;;;;;8.65;5.35;;;;;;;17.11;100.00;100716.22;5024989;28;20894;-88
2022/08/20 02:30:32;;;;;;;9.32;5.45;;;;;;;17.08;100.00;100716.88;5027695;28;20429;-90
2022/08/20 02:33:09;;;;;;;7.85;5.35;;;;;;;17.09;100.00;100718.50;5032650;28;20410;-89
2022/08/20 02:35:43;;;;;;;8.63;5.22;;;;;;;17.03;100.00;100717.84;5028490;28;20422;-90
2022/08/20 02:38:17;;;;;;;7.90;5.18;;;;;;;17.00;100.00;100718.50;5015268;28;20899;-92
2022/08/20 02:40:50;;;;;;;7.50;5.00;;;;;;;17.13;100.00;100724.97;5021659;28;20921;-89
2022/08/20 02:43:25;;;;;;;8.57;4.90;;;;;;;17.19;100.00;100731.13;5011323;28;20429;-91
2022/08/20 02:45:58;;;;;;;7.68;5.18;;;;;;;17.18;100.00;100724.81;5033038;28;21117;-92
2022/08/20 02:48:32;;;;;;;8.20;5.50;;;;;;;17.16;100.00;100725.13;5023065;28;20904;-92
2022/08/20 02:51:06;;;;;;;8.48;5.28;;;;;;;17.22;100.00;100731.28;5032703;28;20422;-90
2022/08/20 02:53:41;;;;;;;7.90;5.57;;;;;;;17.18;100.00;100727.56;5014968;28;20415;-91
2022/08/20 02:56:15;;;;;;;9.98;5.72;;;;;;;17.25;100.00;100719.63;5030764;28;20887;-91
2022/08/20 02:58:49;;;;;;;8.98;5.88;;;;;;;17.15;100.00;100718.03;5035861;28;20846;-91
2022/08/20 03:01:19;;;;;;;8.27;5.47;;;;;;;17.22;100.00;100714.78;5030622;28;20419;-91
2022/08/20 03:03:47;;;;;;;9.17;5.73;;;;;;;17.21;100.00;100721.41;5030556;28;20442;-90
2022/08/20 03:06:20;;;;;;;8.75;5.70;;;;;;;17.16;100.00;100718.81;5031933;28;20432;-90
2022/08/20 03:08:54;;;;;;;8.95;5.65;;;;;;;17.21;100.00;100712.34;5011858;28;20430;-90
2022/08/20 03:11:27;;;;;;;9.00;6.00;;;;;;;17.23;100.00;100702.63;5029116;28;20418;-91
2022/08/20 03:14:02;;;;;;;8.68;5.70;;;;;;;17.19;100.00;100709.13;5016011;28;20753;-90
2022/08/20 03:16:35;;;;;;;9.02;5.80;;;;;;;17.20;100.00;100697.00;5006648;28;20426;-90
2022/08/20 03:19:08;;;;;;;8.70;5.60;;;;;;;17.17;100.00;100695.69;5013972;28;20430;-85
2022/08/20 03:21:36;;;;;;;9.47;6.00;;;;;;;17.13;100.00;100708.47;5026461;28;20419;-89
2022/08/20 03:24:09;;;;;;;8.93;5.60;;;;;;;17.20;100.00;100708.00;5014655;28;20445;-90
2022/08/20 03:26:43;;;;;;;7.75;5.03;;;;;;;17.20;100.00;100702.50;5025607;28;20422;-89
2022/08/20 03:29:18;;;;;;;9.82;5.47;;;;;;;17.25;100.00;100702.31;5006667;28;20429;-90
2022/08/20 03:31:46;;;;;;;8.70;5.30;;;;;;;17.21;100.00;100706.84;5030109;28;20429;-90
2022/08/20 03:34:19;;;;;;;8.48;5.32;;;;;;;17.22;100.00;100723.03;5030104;28;20431;-90
2022/08/20 03:36:53;;;;;;;9.43;5.50;;;;;;;17.17;100.00;100717.69;5007311;28;20430;-91
2022/08/20 03:39:26;;;;;;;8.73;5.13;;;;;;;17.21;100.00;100726.09;5029602;28;20435;-89
2022/08/20 03:41:59;;;;;;;8.60;5.60;;;;;;;17.26;100.00;100725.94;5037193;28;20518;-91
2022/08/20 03:44:35;;;;;;;10.23;5.95;;;;;;;17.30;100.00;100722.22;5027348;28;20459;-90
2022/08/20 03:47:08;;;;;;;8.37;5.50;;;;;;;17.22;100.00;100731.28;5014349;28;20427;-91
2022/08/20 03:49:41;;;;;;;9.05;6.05;;;;;;;17.24;100.00;100730.97;5030956;28;20446;-93
2022/08/20 03:52:15;;;;;;;10.73;6.53;;;;;;;17.23;100.00;100738.38;5008072;28;20422;-90
2022/08/20 03:54:48;;;;;;;10.25;6.45;;;;;;;17.29;100.00;100739.03;5012551;28;20431;-90
2022/08/20 03:57:22;;;;;;;10.60;7.05;;;;;;;17.34;100.00;100745.19;5034281;28;20756;-90
2022/08/20 03:59:56;;;;;;;11.47;7.10;;;;;;;17.26;100.00;100735.00;5032068;28;20486;-90
2022/08/20 04:02:26;;;;;;;10.90;6.80;;;;;;;17.29;100.00;100747.28;5031793;28;20430;-85
2022/08/20 04:04:59;;;;;;;10.63;7.30;;;;;;;17.25;100.00;100738.88;5023616;28;20430;-90
2022/08/20 04:07:32;;;;;;;10.20;7.00;;;;;;;17.32;100.00;100750.19;5025898;28;20419;-90
2022/08/20 04:10:09;;;;;;;10.82;7.22;;;;;;;17.28;100.00;100745.69;5026023;28;20446;-87
2022/08/20 04:12:39;;;;;;;12.07;7.63;;;;;;;17.30;100.00;100741.47;5029558;28;20411;-92
2022/08/20 04:15:12;;;;;;;11.30;7.63;;;;;;;17.16;100.00;100735.31;5031788;28;20414;-89
2022/08/20 04:17:47;;;;;;;11.88;7.85;;;;;;;17.14;100.00;100732.91;5019595;28;20425;-90
2022/08/20 04:20:24;;;;;;;12.03;8.10;;;;;;;17.11;100.00;100740.97;5024408;28;20430;-89
2022/08/20 04:22:55;;;;;;;14.00;8.23;;;;;;;17.05;100.00;100734.81;5007618;28;20424;-92
2022/08/20 04:25:30;;;;;;;13.50;8.88;;;;;;;17.15;100.00;100741.94;5030624;28;20498;-90
2022/08/20 04:28:06;;;;;;;13.48;8.80;;;;;;;17.11;100.00;100744.53;5029121;28;20419;-91
2022/08/20 04:30:42;;;;;;;14.60;8.80;;;;;;;17.16;100.00;100738.06;5008943;28;20445;-89
2022/08/20 04:33:15;;;;;;;15.97;9.47;;;;;;;17.25;100.00;100743.56;5030905;28;20913;-93
2022/08/20 04:35:48;;;;;;;17.30;10.35;;;;;;;17.40;100.00;100742.25;5023889;28;20435;-92
2022/08/20 04:38:19;;;;;;;18.63;10.60;;;;;;;17.32;100.00;100749.41;5012963;28;20427;-89
2022/08/20 04:40:56;;;;;;;17.40;10.43;;;;;;;17.27;100.00;100744.84;5027034;28;20421;-89
2022/08/20 04:43:33;;;;;;;19.67;11.55;;;;;;;17.26;100.00;100747.94;5029532;28;20441;-91
2022/08/20 04:46:09;;;;;;;19.88;11.52;;;;;;;17.28;100.00;100751.19;5028740;28;20415;-90
2022/08/20 04:48:39;;;;;;;18.23;11.70;;;;;;;17.34;100.00;100744.38;5007779;28;20426;-91
2022/08/20 04:51:13;;;;;;;20.45;10.82;;;;;;;17.36;100.00;100752.28;5009928;28;20427;-91
2022/08/20 04:53:47;;;;;;;20.80;11.10;;;;;;;17.35;100.00;100751.50;5025215;28;20467;-89
2022/08/20 04:56:22;;;;;;;18.65;11.20;;;;;;;17.45;100.00;100747.59;5026621;28;20458;-90
2022/08/20 04:58:52;;;;;;;16.63;10.17;;;;;;;17.50;100.00;100752.94;5027642;28;20931;-90
2022/08/20 05:01:27;;;;;;;17.00;10.75;;;;;;;17.45;100.00;100762.16;5011645;28;20438;-90
2022/08/20 05:03:56;;;;;;;17.45;10.25;;;;;;;17.55;100.00;100761.03;5033833;28;20922;-91
2022/08/20 05:06:31;;;;;;;18.02;10.88;;;;;;;17.47;100.00;100754.41;5011428;28;20410;-90
2022/08/20 05:09:04;;;;;;;18.95;11.32;;;;;;;17.65;100.00;100766.22;5004747;28;20419;-88
2022/08/20 05:11:37;;;;;;;17.55;10.80;;;;;;;17.62;100.00;100764.13;5005892;28;20429;-92
2022/08/20 05:14:12;;;;;;;17.40;10.43;;;;;;;17.68;100.00;100762.00;5012446;28;20433;-89
2022/08/20 05:16:47;;;;;;;18.23;10.48;;;;;;;17.72;100.00;100762.13;5030875;28;20896;-89
2022/08/20 05:19:20;;;;;;;19.55;11.63;;;;;;;17.70;100.00;100762.47;5030722;28;20424;-87
2022/08/20 05:21:53;;;;;;;20.38;11.63;;;;;;;17.70;100.00;100773.47;5007967;28;20431;-91
2022/08/20 05:24:27;;;;;;;20.33;11.82;;;;;;;17.67;100.00;100763.91;5029259;28;20427;-88
2022/08/20 05:27:01;;;;;;;17.83;10.93;;;;;;;17.77;100.00;100756.47;5026812;28;20427;-90
2022/08/20 05:29:34;;;;;;;17.55;10.98;;;;;;;17.74;100.00;100765.38;5026534;28;20431;-90
2022/08/20 05:32:09;;;;;;;16.40;10.38;;;;;;;17.74;100.00;100757.13;5028438;28;20423;-91
2022/08/20 05:34:42;;;;;;;18.60;10.95;;;;;;;17.80;100.00;100767.66;5028530;28;20423;-91
2022/08/20 05:37:16;;;;;;;16.53;10.20;;;;;;;17.83;100.00;100760.69;4996932;28;20428;-90
2022/08/20 05:39:45;;;;;;;17.40;10.00;;;;;;;17.90;100.00;100757.41;5013313;28;20895;-90
2022/08/20 05:42:13;;;;;;;16.02;10.05;;;;;;;17.89;100.00;100766.81;5030957;28;20403;-90
2022/08/20 05:44:46;;;;;;;17.08;10.20;;;;;;;17.88;100.00;100763.25;5029420;28;20434;-89
2022/08/20 05:47:22;;;;;;;16.90;10.10;;;;;;;17.91;100.00;100756.28;5029080;28;20427;-90
2022/08/20 05:49:55;;;;;;;16.67;10.32;;;;;;;17.95;100.00;100773.78;5030799;28;20502;-90
2022/08/20 05:52:29;;;;;;;17.02;10.60;;;;;;;17.93;100.00;100765.84;5028999;28;20427;-90
2022/08/20 05:55:02;;;;;;;17.50;10.27;;;;;;;17.93;100.00;100765.06;5016187;28;20431;-89
2022/08/20 05:57:36;;;;;;;17.83;10.68;;;;;;;18.12;100.00;100768.25;5032743;28;20426;-91
2022/08/20 06:00:07;;;;;;;17.02;9.93;;;;;;;18.07;100.00;100762.09;5003015;28;20441;-90
2022/08/20 06:05:33;;;;;;;15.88;9.90;;;;;;;18.03;100.00;100764.69;4993572;28;20429;-90
2022/08/20 06:08:07;;;;;;;17.52;10.68;;;;;;;18.06;100.00;100766.78;4995214;28;20421;-90
2022/08/20 06:10:40;;;;;;;17.83;10.48;;;;;;;18.01;100.00;100762.28;5012049;28;20847;-89
2022/08/20 06:13:13;;;;;;;17.92;10.55;;;;;;;17.94;100.00;100769.41;4995182;28;20443;-90
2022/08/20 06:15:47;;;;;;;17.25;10.18;;;;;;;18.02;100.00;100766.66;5004391;28;20427;-89
2022/08/20 06:18:21;;;;;;;16.10;9.80;;;;;;;18.00;100.00;100773.63;5033421;28;20426;-90
2022/08/20 06:20:50;;;;;;;18.65;10.57;;;;;;;18.00;100.00;100776.38;5033930;28;20411;-93
2022/08/20 06:23:24;;;;;;;16.05;9.70;;;;;;;18.07;100.00;100775.88;5031967;28;20434;-90
2022/08/20 06:25:57;;;;;;;17.15;10.30;;;;;;;18.17;100.00;100775.50;5033797;28;20431;-89
2022/08/20 06:28:30;;;;;;;17.45;9.93;;;;;;;18.17;100.00;100781.84;5015459;28;20415;-91
2022/08/20 06:31:03;;;;;;;15.93;9.30;;;;;;;18.23;100.00;100771.44;5033708;28;20422;-89
2022/08/20 06:33:38;;;;;;;15.68;9.57;;;;;;;18.26;100.00;100781.81;5029922;28;20416;-91
2022/08/20 06:36:11;;;;;;;16.73;9.75;;;;;;;18.45;100.00;100786.91;5031877;28;20438;-88
2022/08/20 06:38:45;;;;;;;16.00;9.20;;;;;;;18.49;100.00;100778.78;5031843;28;20422;-91
2022/08/20 06:41:18;;;;;;;17.17;9.43;;;;;;;18.47;100.00;100781.06;5032050;28;20423;-89
2022/08/20 06:43:52;;;;;;;15.68;9.30;;;;;;;18.64;100.00;100786.50;5033029;28;20426;-92
2022/08/20 06:46:25;;;;;;;14.55;8.90;;;;;;;18.61;100.00;100780.84;5032156;28;20426;-92
2022/08/20 06:49:00;;;;;;;12.02;7.90;;;;;;;18.68;100.00;100787.47;5031722;28;20767;-90
2022/08/20 06:51:34;;;;;;;14.18;8.40;;;;;;;18.70;100.00;100787.91;5012822;28;20428;-91
2022/08/20 06:54:07;;;;;;;14.07;8.25;;;;;;;18.79;100.00;100790.63;5013340;28;20405;-88
2022/08/20 06:56:40;;;;;;;14.93;8.32;;;;;;;18.74;100.00;100785.31;5013208;28;20415;-89
2022/08/20 06:59:08;;;;;;;13.18;7.28;;;;;;;18.80;100.00;100792.25;5009631;28;20411;-87
2022/08/20 07:01:41;;;;;;;12.43;7.70;;;;;;;18.81;100.00;100790.28;5032857;28;20435;-88
2022/08/20 07:04:16;;;;;;;12.50;6.90;;;;;;;18.82;100.00;100792.75;5023989;28;20435;-90
2022/08/20 07:06:50;;;;;;;13.03;8.70;;;;;;;18.90;100.00;100795.81;5031659;28;20431;-89
2022/08/20 07:09:25;;;;;;;11.90;6.60;;;;;;;18.85;100.00;100807.78;5025725;28;20428;-89
2022/08/20 07:11:58;;;;;;;11.43;6.38;;;;;;;18.98;100.00;100815.03;5035870;28;20426;-87
2022/08/20 07:14:26;;;;;;;11.02;6.40;;;;;;;19.00;100.00;100801.75;5022612;28;20426;-89
2022/08/20 07:17:02;;;;;;;11.55;6.38;;;;;;;19.14;100.00;100818.03;5024546;28;20439;-91
2022/08/20 07:19:32;;;;;;;9.27;5.63;;;;;;;19.19;100.00;100811.50;5025715;28;20772;-90
2022/08/20 07:22:06;;;;;;;8.77;5.35;;;;;;;19.42;100.00;100806.47;5023127;28;20423;-90
2022/08/20 07:24:39;;;;;;;11.07;5.25;;;;;;;19.31;100.00;100813.53;5019082;28;20428;-88
2022/08/20 07:27:12;;;;;;;8.93;5.25;;;;;;;19.31;100.00;100821.81;5028646;28;20431;-88
2022/08/20 07:32:35;;;;;;;7.20;4.70;;;;;;;19.39;100.00;100812.66;5009978;28;20496;-89
2022/08/20 07:35:13;;;;;;;9.18;4.95;;;;;;;19.56;100.00;100820.00;5001961;28;20438;-84
2022/08/20 07:37:48;;;;;;;6.95;4.28;;;;;;;19.63;100.00;100823.00;5012442;28;20439;-90
2022/08/20 07:40:28;;;;;;;8.90;4.60;;;;;;;19.64;100.00;100829.34;5025421;28;20419;-88
2022/08/20 07:43:02;;;;;;;7.28;4.20;;;;;;;19.66;100.00;100821.53;5019992;28;20439;-91
2022/08/20 07:45:35;;;;;;;7.88;4.72;;;;;;;19.62;100.00;100824.16;5019638;28;20431;-92
2022/08/20 07:48:11;;;;;;;7.68;4.82;;;;;;;19.71;100.00;100822.13;5031130;28;20435;-89
2022/08/20 07:50:47;;;;;;;9.10;4.68;;;;;;;19.89;100.00;100819.25;5028339;28;20423;-86
2022/08/20 07:53:15;;;;;;;8.88;5.20;;;;;;;19.85;100.00;100824.63;5023393;28;20421;-89
2022/08/20 07:55:48;;;;;;;9.68;5.35;;;;;;;19.85;100.00;100824.63;5007713;28;20787;-89
2022/08/20 07:58:19;;;;;;;9.00;4.63;;;;;;;19.94;100.00;100824.56;5029427;28;20431;-90
2022/08/20 08:00:52;;;;;;;9.65;4.80;;;;;;;20.18;100.00;100820.25;5029037;28;20429;-86
2022/08/20 08:03:27;;;;;;;8.67;4.80;;;;;;;20.18;100.00;100823.81;5026310;28;20776;-89
2022/08/20 08:05:56;;;;;;;7.88;5.10;;;;;;;20.12;100.00;100830.72;5026717;28;20419;-90
2022/08/20 08:08:33;;;;;;;7.55;4.78;;;;;;;20.23;100.00;100828.31;5022547;28;20430;-91
2022/08/20 08:11:03;;;;;;;6.68;4.10;;;;;;;20.36;100.00;100823.63;5023579;28;20919;-89
2022/08/20 08:13:40;;;;;;;7.57;4.18;;;;;;;20.51;100.00;100830.44;5008697;28;21291;-88
2022/08/20 08:16:13;;;;;;;6.20;3.63;;;;;;;20.55;100.00;100826.63;5023617;28;20454;-89
2022/08/20 08:18:47;;;;;;;6.18;3.60;;;;;;;20.60;100.00;100828.34;5012613;28;20432;-88
2022/08/20 08:21:22;;;;;;;11.52;6.82;;;;;;;20.65;100.00;100835.63;5010477;28;20800;-88
2022/08/20 08:23:55;;;;;;;5.45;3.45;;;;;;;20.38;100.00;100835.97;5024577;28;20434;-90
2022/08/20 08:26:28;;;;;;;6.60;3.33;;;;;;;20.43;100.00;100836.88;5020714;28;20442;-88
2022/08/20 08:29:02;;;;;;;5.10;3.05;;;;;;;20.61;100.00;100840.25;5022141;28;20465;-90
2022/08/20 08:31:35;;;;;;;4.53;2.87;;;;;;;20.82;100.00;100829.88;5012275;28;20419;-91
2022/08/20 08:34:09;;;;;;;4.85;2.75;;;;;;;20.97;100.00;100849.72;5028088;28;20907;-86
2022/08/20 08:36:44;;;;;;;5.13;2.90;;;;;;;21.04;100.00;100844.41;5030763;28;20426;-88
2022/08/20 08:39:17;;;;;;;4.78;3.00;;;;;;;21.15;100.00;100848.31;5022480;28;20912;-88
2022/08/20 08:41:53;;;;;;;4.40;2.63;;;;;;;21.13;100.00;100842.34;5002962;28;20455;-86
2022/08/20 08:44:29;;;;;;;5.07;2.45;;;;;;;21.18;100.00;100846.81;5027952;28;20414;-91
2022/08/20 08:47:01;;;;;;;4.23;2.60;;;;;;;21.03;100.00;100853.84;5011502;28;20891;-84
2022/08/20 08:49:33;;;;;;;4.68;2.90;;;;;;;21.17;100.00;100845.19;5026757;28;20430;-91
2022/08/20 08:52:13;;;;;;;6.30;3.00;;;;;;;21.20;100.00;100850.06;5024483;28;20424;-90
2022/08/20 08:54:46;;;;;;;5.22;2.90;;;;;;;21.30;100.00;100851.53;5007921;28;20427;-90
2022/08/20 08:57:20;;;;;;;4.15;2.67;;;;;;;21.30;100.00;100852.34;5022652;28;20450;-88
2022/08/20 08:59:54;;;;;;;3.83;2.50;;;;;;;21.32;100.00;100852.81;5014861;28;20466;-83
2022/08/20 09:02:25;;;;;;;4.27;2.50;;;;;;;21.32;100.00;100855.56;5010919;28;21031;-89
2022/08/20 09:04:55;;;;;;;4.03;2.50;;;;;;;21.45;100.00;100863.81;5009086;28;20840;-83
2022/08/20 09:07:33;;;;;;;5.00;2.72;;;;;;;21.56;100.00;100860.25;5002919;28;20513;-87
2022/08/20 09:10:07;;;;;;;5.40;3.00;;;;;;;21.55;100.00;100864.19;5008839;28;20950;-91
2022/08/20 09:12:40;;;;;;;5.05;2.70;;;;;;;21.38;100.00;100864.44;5019727;28;20442;-87
2022/08/20 09:15:14;;;;;;;4.38;2.63;;;;;;;21.49;100.00;100873.03;5022577;28;20427;-89
2022/08/20 09:17:47;;;;;;;3.80;2.38;;;;;;;21.61;100.00;100858.41;5024924;28;20903;-88
2022/08/20 09:20:17;;;;;;;4.18;2.42;;;;;;;21.64;100.00;100857.69;5021339;28;20431;-90
2022/08/20 09:22:51;;;;;;;4.60;2.53;;;;;;;21.66;100.00;100855.41;5025027;28;20427;-89
2022/08/20 09:25:24;;;;;;;3.92;2.17;;;;;;;21.59;100.00;100860.72;5022136;28;20435;-89
2022/08/20 09:27:58;;;;;;;3.43;2.33;;;;;;;21.45;100.00;100861.88;5023907;28;20422;-90
2022/08/20 09:30:31;;;;;;;4.38;2.70;;;;;;;21.71;100.00;100855.94;5018252;28;20437;-90
2022/08/20 09:33:04;;;;;;;4.32;2.20;;;;;;;22.09;100.00;100851.84;5025004;28;20438;-89
2022/08/20 09:35:33;;;;;;;2.60;1.80;;;;;;;22.39;100.00;100853.47;5028286;28;20432;-88
2022/08/20 09:38:07;;;;;;;5.18;2.25;;;;;;;22.55;100.00;100853.44;5026476;28;20926;-87
2022/08/20 09:40:41;;;;;;;2.03;1.60;;;;;;;22.48;100.00;100844.94;5011629;28;20424;-89
2022/08/20 09:43:14;;;;;;;3.05;1.80;;;;;;;22.30;100.00;100856.34;5010710;28;20974;-86
2022/08/20 09:45:42;;;;;;;2.95;1.60;;;;;;;22.49;100.00;100849.34;5028744;28;20437;-88
2022/08/20 09:48:15;;;;;;;3.42;1.70;;;;;;;22.49;100.00;100849.34;5012406;28;20438;-91
2022/08/20 09:50:49;;;;;;;2.97;1.55;;;;;;;22.68;100.00;100845.84;5023808;28;20429;-87
2022/08/20 09:53:24;;;;;;;3.50;1.63;;;;;;;22.61;100.00;100846.47;5008900;28;20435;-86
2022/08/20 09:55:58;;;;;;;2.93;1.53;;;;;;;22.81;100.00;100854.88;5025197;28;20428;-88
2022/08/20 09:58:37;;;;;;;3.78;1.60;;;;;;;22.89;100.00;100851.91;5010533;28;20426;-89
2022/08/20 10:01:13;;;;;;;2.08;1.50;;;;;;;22.75;100.00;100857.13;5025554;28;20761;-86
2022/08/20 10:03:48;;;;;;;2.70;1.50;;;;;;;22.83;100.00;100850.59;5024938;28;20426;-89
2022/08/20 10:06:22;;;;;;;3.55;1.58;;;;;;;22.69;100.00;100851.06;5014456;28;20434;-88
2022/08/20 10:08:56;;;;;;;2.10;1.42;;;;;;;22.79;100.00;100852.47;4995536;28;20440;-88
2022/08/20 10:11:29;;;;;;;3.08;1.52;;;;;;;22.74;100.00;100847.19;5028750;28;20442;-84
2022/08/20 10:13:58;;;;;;;3.95;2.28;;;;;;;22.80;100.00;100856.88;5003078;28;20439;-83
2022/08/20 10:16:31;;;;;;;4.75;2.75;;;;;;;22.74;100.00;100852.72;5028099;28;21087;-84
2022/08/20 10:19:05;;;;;;;3.33;1.50;;;;;;;22.74;100.00;100866.59;5022826;28;20799;-83
2022/08/20 10:21:33;;;;;;;3.67;1.50;;;;;;;22.74;100.00;100858.28;5007685;28;20434;-82
2022/08/20 10:24:08;;;;;;;2.53;1.30;;;;;;;22.68;100.00;100854.97;5029331;28;20430;-82
2022/08/20 10:26:41;;;;;;;1.85;1.25;;;;;;;22.74;100.00;100864.66;5005707;28;20439;-83
2022/08/20 10:29:15;;;;;;;3.67;1.50;;;;;;;22.84;100.00;100866.06;5024804;28;20531;-84
2022/08/20 10:31:48;;;;;;;1.85;1.38;;;;;;;22.99;100.00;100866.41;5013017;28;20915;-83
2022/08/20 10:34:16;;;;;;;2.20;1.20;;;;;;;22.89;100.00;100867.75;5011477;28;20435;-83
2022/08/20 10:36:45;;;;;;;2.50;1.30;;;;;;;22.82;100.00;100870.38;5014075;28;20431;-84
2022/08/20 10:39:15;;;;;;;2.75;1.20;;;;;;;22.93;100.00;100865.88;5025415;28;20440;-86
2022/08/20 10:41:48;;;;;;;4.15;1.30;;;;;;;22.90;100.00;100866.59;5014487;28;20442;-88
2022/08/20 10:44:22;;;;;;;2.90;1.45;;;;;;;22.83;100.00;100864.47;5030301;28;20435;-87
2022/08/20 10:46:55;;;;;;;2.43;1.30;;;;;;;23.00;100.00;100868.81;5027222;28;20459;-86
2022/08/20 10:49:33;;;;;;;2.33;1.23;;;;;;;22.97;100.00;100868.75;5028325;28;21271;-87
2022/08/20 10:52:06;;;;;;;4.05;1.63;;;;;;;23.06;100.00;100866.56;5027974;28;20907;-87
2022/08/20 10:54:40;;;;;;;2.20;1.35;;;;;;;23.17;100.00;100864.88;5029402;28;20911;-89
2022/08/20 10:57:13;;;;;;;3.30;1.30;;;;;;;23.05;100.00;100864.97;5032990;28;21160;-88
2022/08/20 10:59:49;;;;;;;2.50;1.40;;;;;;;23.38;100.00;100869.28;5009998;28;20436;-88
2022/08/20 11:02:23;;;;;;;3.45;1.60;;;;;;;23.34;100.00;100868.41;5010573;28;20920;-86
2022/08/20 11:04:56;;;;;;;4.72;1.70;;;;;;;23.60;100.00;100863.06;5025976;28;20954;-86
2022/08/20 11:07:33;;;;;;;3.70;1.60;;;;;;;23.52;100.00;100871.56;5019765;28;20938;-91
2022/08/20 11:10:09;;;;;;;2.90;1.45;;;;;;;23.49;100.00;100866.75;5021126;28;20881;-89
2022/08/20 11:12:42;;;;;;;15.18;9.90;;;;;;;23.69;100.00;100873.16;5025571;28;20438;-87
2022/08/20 11:15:15;;;;;;;3.03;1.40;;;;;;;23.52;100.00;100875.19;5022278;28;20458;-88
2022/08/20 11:17:45;;;;;;;3.22;1.40;;;;;;;23.49;100.00;100872.31;5022501;28;20423;-88
2022/08/20 11:20:20;;;;;;;3.28;1.50;;;;;;;23.41;100.00;100874.16;5024675;28;20446;-87
2022/08/20 11:22:48;;;;;;;2.45;1.45;;;;;;;23.59;100.00;100871.75;5018693;28;20795;-86
2022/08/20 11:25:18;;;;;;;3.08;1.50;;;;;;;23.62;100.00;100882.13;5027433;28;20899;-88
2022/08/20 11:27:53;;;;;;;2.58;1.40;;;;;;;23.69;100.00;100873.94;5019506;28;20435;-85
2022/08/20 11:30:29;;;;;;;3.38;1.42;;;;;;;23.68;100.00;100877.09;5021645;28;20424;-88
2022/08/20 11:32:59;;;;;;;2.95;1.20;;;;;;;23.72;100.00;100883.53;5007584;28;20434;-89
2022/08/20 11:35:35;;;;;;;3.30;1.35;;;;;;;23.82;100.00;100884.91;5027234;28;20435;-89
2022/08/20 11:38:08;;;;;;;4.95;1.55;;;;;;;23.76;100.00;100878.84;5021469;28;20815;-86
2022/08/20 11:40:42;;;;;;;6.07;3.50;;;;;;;23.69;100.00;100871.16;5007739;28;20434;-85
2022/08/20 11:43:16;;;;;;;3.07;1.50;;;;;;;23.53;100.00;100878.75;5024198;28;20438;-85
2022/08/20 11:45:52;;;;;;;4.03;1.33;;;;;;;23.48;100.00;100888.19;5007643;28;20426;-88
2022/08/20 11:48:25;;;;;;;2.13;1.20;;;;;;;23.49;100.00;100877.88;5031394;28;20415;-87